sensor_id;sensor_type;location;lat;lon;timestamp;pressure;altitude;pressure_sealevel;temperature;humidity
61898;BME280;47850;50.274;18.908;2023-04-02T00:00:35;97024.23;;;7.50;95.26
61898;BME280;47850;50.274;18.908;2023-04-02T00:11:33;97031.86;;;7.50;95.07
61898;BME280;47850;50.274;18.908;2023-04-02T00:14:04;97031.45;;;7.50;94.96
61898;BME280;47850;50.274;18.908;2023-04-02T00:16:32;97033.75;;;7.48;94.90
61898;BME280;47850;50.274;18.908;2023-04-02T00:19:01;97036.52;;;7.47;94.94
61898;BME280;47850;50.274;18.908;2023-04-02T00:21:34;97040.73;;;7.44;94.88
61898;BME280;47850;50.274;18.908;2023-04-02T00:24:06;97041.80;;;7.41;95.01
61898;BME280;47850;50.274;18.908;2023-04-02T00:26:38;97041.87;;;7.40;95.23
61898;BME280;47850;50.274;18.908;2023-04-02T00:29:10;97043.98;;;7.38;95.34
61898;BME280;47850;50.274;18.908;2023-04-02T00:31:42;97043.80;;;7.37;95.33
61898;BME280;47850;50.274;18.908;2023-04-02T00:34:16;97046.01;;;7.36;95.33
61898;BME280;47850;50.274;18.908;2023-04-02T00:36:44;97044.28;;;7.36;95.53
61898;BME280;47850;50.274;18.908;2023-04-02T00:39:16;97045.66;;;7.37;95.56
61898;BME280;47850;50.274;18.908;2023-04-02T00:41:44;97044.51;;;7.35;95.48
61898;BME280;47850;50.274;18.908;2023-04-02T00:44:15;97041.67;;;7.36;95.63
61898;BME280;47850;50.274;18.908;2023-04-02T00:46:48;97045.52;;;7.36;95.58
61898;BME280;47850;50.274;18.908;2023-04-02T00:49:20;97046.77;;;7.36;95.57
61898;BME280;47850;50.274;18.908;2023-04-02T00:51:56;97053.34;;;7.37;95.83
61898;BME280;47850;50.274;18.908;2023-04-02T00:54:26;97051.00;;;7.39;95.88
61898;BME280;47850;50.274;18.908;2023-04-02T00:56:56;97047.96;;;7.39;95.66
61898;BME280;47850;50.274;18.908;2023-04-02T00:59:29;97050.79;;;7.38;95.61
61898;BME280;47850;50.274;18.908;2023-04-02T01:02:20;97051.34;;;7.38;95.59
61898;BME280;47850;50.274;18.908;2023-04-02T01:04:52;97052.73;;;7.36;95.49
61898;BME280;47850;50.274;18.908;2023-04-02T01:07:27;97052.80;;;7.36;95.65
61898;BME280;47850;50.274;18.908;2023-04-02T01:12:54;97055.90;;;7.35;95.74
61898;BME280;47850;50.274;18.908;2023-04-02T01:15:29;97056.73;;;7.33;95.69
61898;BME280;47850;50.274;18.908;2023-04-02T01:21:02;97059.92;;;7.29;95.83
61898;BME280;47850;50.274;18.908;2023-04-02T01:26:08;97059.98;;;7.26;96.04
61898;BME280;47850;50.274;18.908;2023-04-02T01:31:23;97059.30;;;7.22;96.12
61898;BME280;47850;50.274;18.908;2023-04-02T01:33:54;97058.52;;;7.22;96.26
61898;BME280;47850;50.274;18.908;2023-04-02T01:38:56;97063.44;;;7.23;96.31
61898;BME280;47850;50.274;18.908;2023-04-02T01:41:31;97062.77;;;7.24;96.42
61898;BME280;47850;50.274;18.908;2023-04-02T01:44:07;97063.69;;;7.23;96.29
61898;BME280;47850;50.274;18.908;2023-04-02T01:46:37;97061.73;;;7.23;96.23
61898;BME280;47850;50.274;18.908;2023-04-02T01:49:14;97063.67;;;7.23;96.39
61898;BME280;47850;50.274;18.908;2023-04-02T01:51:43;97063.19;;;7.23;96.46
61898;BME280;47850;50.274;18.908;2023-04-02T01:54:12;97067.53;;;7.23;96.48
61898;BME280;47850;50.274;18.908;2023-04-02T01:56:42;97066.15;;;7.23;96.62
61898;BME280;47850;50.274;18.908;2023-04-02T01:59:10;97066.97;;;7.24;96.67
61898;BME280;47850;50.274;18.908;2023-04-02T02:01:42;97068.38;;;7.24;96.74
61898;BME280;47850;50.274;18.908;2023-04-02T02:04:12;97074.61;;;7.23;96.71
61898;BME280;47850;50.274;18.908;2023-04-02T02:06:40;97076.30;;;7.23;96.86
61898;BME280;47850;50.274;18.908;2023-04-02T02:09:11;97076.02;;;7.22;96.96
61898;BME280;47850;50.274;18.908;2023-04-02T02:11:39;97078.89;;;7.18;97.15
61898;BME280;47850;50.274;18.908;2023-04-02T02:14:11;97080.24;;;7.15;97.09
61898;BME280;47850;50.274;18.908;2023-04-02T02:16:39;97079.36;;;7.12;97.12
61898;BME280;47850;50.274;18.908;2023-04-02T02:19:22;97082.81;;;7.11;97.36
61898;BME280;47850;50.274;18.908;2023-04-02T02:21:51;97083.64;;;7.11;97.45
61898;BME280;47850;50.274;18.908;2023-04-02T02:24:24;97083.19;;;7.10;97.56
61898;BME280;47850;50.274;18.908;2023-04-02T02:26:57;97082.50;;;7.06;97.61
61898;BME280;47850;50.274;18.908;2023-04-02T02:29:27;97088.36;;;7.04;97.79
61898;BME280;47850;50.274;18.908;2023-04-02T02:31:57;97086.69;;;7.02;97.73
61898;BME280;47850;50.274;18.908;2023-04-02T02:34:28;97093.27;;;7.03;98.05
61898;BME280;47850;50.274;18.908;2023-04-02T02:37:01;97093.59;;;7.03;98.06
61898;BME280;47850;50.274;18.908;2023-04-02T02:39:37;97092.58;;;7.03;97.97
61898;BME280;47850;50.274;18.908;2023-04-02T02:44:35;97097.75;;;7.02;98.06
61898;BME280;47850;50.274;18.908;2023-04-02T02:47:14;97100.11;;;7.01;97.95
61898;BME280;47850;50.274;18.908;2023-04-02T02:49:51;97104.95;;;6.99;97.77
61898;BME280;47850;50.274;18.908;2023-04-02T02:52:20;97104.91;;;6.96;97.62
61898;BME280;47850;50.274;18.908;2023-04-02T02:54:50;97109.98;;;6.93;97.51
61898;BME280;47850;50.274;18.908;2023-04-02T02:57:20;97109.52;;;6.89;97.36
61898;BME280;47850;50.274;18.908;2023-04-02T02:59:49;97112.64;;;6.86;97.20
61898;BME280;47850;50.274;18.908;2023-04-02T03:02:18;97112.14;;;6.85;97.18
61898;BME280;47850;50.274;18.908;2023-04-02T03:04:47;97115.63;;;6.86;97.25
61898;BME280;47850;50.274;18.908;2023-04-02T03:07:17;97118.98;;;6.86;96.98
61898;BME280;47850;50.274;18.908;2023-04-02T03:12:35;97120.64;;;6.85;96.86
61898;BME280;47850;50.274;18.908;2023-04-02T03:17:56;97124.13;;;6.86;96.60
61898;BME280;47850;50.274;18.908;2023-04-02T03:22:59;97123.00;;;6.86;96.30
61898;BME280;47850;50.274;18.908;2023-04-02T03:27:59;97124.72;;;6.86;96.07
61898;BME280;47850;50.274;18.908;2023-04-02T03:30:30;97125.04;;;6.86;95.95
61898;BME280;47850;50.274;18.908;2023-04-02T03:33:02;97128.50;;;6.86;95.76
61898;BME280;47850;50.274;18.908;2023-04-02T03:35:36;97129.63;;;6.87;95.79
61898;BME280;47850;50.274;18.908;2023-04-02T03:38:15;97128.38;;;6.87;95.70
61898;BME280;47850;50.274;18.908;2023-04-02T03:41:01;97131.52;;;6.88;95.64
61898;BME280;47850;50.274;18.908;2023-04-02T03:43:39;97137.81;;;6.87;95.68
61898;BME280;47850;50.274;18.908;2023-04-02T03:46:22;97142.28;;;6.86;95.56
61898;BME280;47850;50.274;18.908;2023-04-02T03:48:54;97143.02;;;6.85;95.57
61898;BME280;47850;50.274;18.908;2023-04-02T03:51:35;97146.34;;;6.85;95.59
61898;BME280;47850;50.274;18.908;2023-04-02T03:54:04;97144.88;;;6.85;95.63
61898;BME280;47850;50.274;18.908;2023-04-02T03:56:33;97150.67;;;6.85;95.57
61898;BME280;47850;50.274;18.908;2023-04-02T03:59:12;97153.15;;;6.83;95.43
61898;BME280;47850;50.274;18.908;2023-04-02T04:01:45;97157.25;;;6.81;95.40
61898;BME280;47850;50.274;18.908;2023-04-02T04:04:17;97156.67;;;6.80;95.48
61898;BME280;47850;50.274;18.908;2023-04-02T04:06:47;97161.42;;;6.81;95.52
61898;BME280;47850;50.274;18.908;2023-04-02T04:09:18;97163.17;;;6.80;95.51
61898;BME280;47850;50.274;18.908;2023-04-02T04:11:50;97165.81;;;6.79;95.45
61898;BME280;47850;50.274;18.908;2023-04-02T04:19:16;97170.33;;;6.71;95.60
61898;BME280;47850;50.274;18.908;2023-04-02T04:21:48;97176.73;;;6.68;95.72
61898;BME280;47850;50.274;18.908;2023-04-02T04:24:23;97184.14;;;6.66;95.92
61898;BME280;47850;50.274;18.908;2023-04-02T04:32:08;97185.95;;;6.62;96.39
61898;BME280;47850;50.274;18.908;2023-04-02T04:34:41;97193.41;;;6.61;96.49
61898;BME280;47850;50.274;18.908;2023-04-02T04:37:17;97192.14;;;6.60;96.69
61898;BME280;47850;50.274;18.908;2023-04-02T04:39:58;97195.52;;;6.61;96.77
61898;BME280;47850;50.274;18.908;2023-04-02T04:42:29;97197.63;;;6.61;96.99
61898;BME280;47850;50.274;18.908;2023-04-02T04:47:32;97201.20;;;6.62;97.05
61898;BME280;47850;50.274;18.908;2023-04-02T04:50:16;97205.36;;;6.62;97.06
61898;BME280;47850;50.274;18.908;2023-04-02T04:52:44;97207.65;;;6.59;97.14
61898;BME280;47850;50.274;18.908;2023-04-02T04:57:46;97215.05;;;6.54;97.20
61898;BME280;47850;50.274;18.908;2023-04-02T05:02:53;97221.79;;;6.50;97.24
61898;BME280;47850;50.274;18.908;2023-04-02T05:05:25;97225.92;;;6.47;97.22
61898;BME280;47850;50.274;18.908;2023-04-02T05:07:57;97229.30;;;6.43;97.13
61898;BME280;47850;50.274;18.908;2023-04-02T05:10:29;97234.41;;;6.40;97.06
61898;BME280;47850;50.274;18.908;2023-04-02T05:15:49;97243.70;;;6.32;96.90
61898;BME280;47850;50.274;18.908;2023-04-02T05:18:25;97244.25;;;6.29;97.13
61898;BME280;47850;50.274;18.908;2023-04-02T05:20:56;97250.40;;;6.27;97.19
61898;BME280;47850;50.274;18.908;2023-04-02T05:23:28;97251.98;;;6.24;97.24
61898;BME280;47850;50.274;18.908;2023-04-02T05:26:02;97257.25;;;6.19;96.93
61898;BME280;47850;50.274;18.908;2023-04-02T05:29:07;97265.48;;;6.15;96.79
61898;BME280;47850;50.274;18.908;2023-04-02T05:31:44;97270.30;;;6.09;96.58
61898;BME280;47850;50.274;18.908;2023-04-02T05:34:20;97272.64;;;6.06;96.52
61898;BME280;47850;50.274;18.908;2023-04-02T05:36:49;97278.27;;;6.04;96.56
61898;BME280;47850;50.274;18.908;2023-04-02T05:39:19;97283.14;;;6.03;96.38
61898;BME280;47850;50.274;18.908;2023-04-02T05:41:48;97285.41;;;5.98;95.90
61898;BME280;47850;50.274;18.908;2023-04-02T05:44:27;97291.55;;;5.90;95.66
61898;BME280;47850;50.274;18.908;2023-04-02T05:46:56;97293.40;;;5.81;95.03
61898;BME280;47850;50.274;18.908;2023-04-02T05:49:27;97293.34;;;5.75;94.99
61898;BME280;47850;50.274;18.908;2023-04-02T05:51:58;97296.75;;;5.70;94.91
61898;BME280;47850;50.274;18.908;2023-04-02T05:54:31;97303.66;;;5.67;94.64
61898;BME280;47850;50.274;18.908;2023-04-02T05:57:02;97304.96;;;5.62;94.19
61898;BME280;47850;50.274;18.908;2023-04-02T05:59:36;97304.31;;;5.60;93.93
61898;BME280;47850;50.274;18.908;2023-04-02T06:02:13;97314.61;;;5.54;93.32
61898;BME280;47850;50.274;18.908;2023-04-02T06:04:55;97321.89;;;5.44;93.11
61898;BME280;47850;50.274;18.908;2023-04-02T06:07:26;97326.66;;;5.36;93.29
61898;BME280;47850;50.274;18.908;2023-04-02T06:12:26;97334.25;;;5.16;92.91
61898;BME280;47850;50.274;18.908;2023-04-02T06:14:55;97343.85;;;5.06;92.60
61898;BME280;47850;50.274;18.908;2023-04-02T06:17:23;97349.66;;;4.98;92.61
61898;BME280;47850;50.274;18.908;2023-04-02T06:19:50;97356.80;;;4.90;92.68
61898;BME280;47850;50.274;18.908;2023-04-02T06:22:23;97356.70;;;4.81;92.59
61898;BME280;47850;50.274;18.908;2023-04-02T06:24:57;97366.48;;;4.72;92.42
61898;BME280;47850;50.274;18.908;2023-04-02T06:27:27;97376.54;;;4.64;92.54
61898;BME280;47850;50.274;18.908;2023-04-02T06:29:57;97379.93;;;4.56;92.52
61898;BME280;47850;50.274;18.908;2023-04-02T06:32:26;97388.34;;;4.45;92.08
61898;BME280;47850;50.274;18.908;2023-04-02T06:34:54;97391.46;;;4.34;91.85
61898;BME280;47850;50.274;18.908;2023-04-02T06:37:23;97401.69;;;4.25;92.05
61898;BME280;47850;50.274;18.908;2023-04-02T06:39:54;97401.59;;;4.16;91.99
61898;BME280;47850;50.274;18.908;2023-04-02T06:42:23;97405.52;;;4.08;91.81
61898;BME280;47850;50.274;18.908;2023-04-02T06:44:53;97414.55;;;4.03;91.95
61898;BME280;47850;50.274;18.908;2023-04-02T06:49:54;97419.71;;;4.01;92.32
61898;BME280;47850;50.274;18.908;2023-04-02T06:52:26;97419.04;;;4.03;92.26
61898;BME280;47850;50.274;18.908;2023-04-02T06:54:54;97420.98;;;4.04;92.00
61898;BME280;47850;50.274;18.908;2023-04-02T06:57:22;97424.48;;;4.06;91.82
61898;BME280;47850;50.274;18.908;2023-04-02T06:59:50;97429.88;;;4.10;92.03
61898;BME280;47850;50.274;18.908;2023-04-02T07:02:32;97432.66;;;4.14;92.04
61898;BME280;47850;50.274;18.908;2023-04-02T07:05:02;97435.86;;;4.20;92.08
61898;BME280;47850;50.274;18.908;2023-04-02T07:07:31;97442.45;;;4.26;92.07
61898;BME280;47850;50.274;18.908;2023-04-02T07:09:58;97448.77;;;4.28;92.09
61898;BME280;47850;50.274;18.908;2023-04-02T07:12:26;97455.13;;;4.29;91.84
61898;BME280;47850;50.274;18.908;2023-04-02T07:14:54;97459.41;;;4.25;91.42
61898;BME280;47850;50.274;18.908;2023-04-02T07:17:21;97462.84;;;4.23;91.61
61898;BME280;47850;50.274;18.908;2023-04-02T07:19:49;97468.11;;;4.18;91.37
61898;BME280;47850;50.274;18.908;2023-04-02T07:22:17;97471.92;;;4.15;91.58
61898;BME280;47850;50.274;18.908;2023-04-02T07:24:45;97475.90;;;4.13;91.72
61898;BME280;47850;50.274;18.908;2023-04-02T07:27:13;97484.02;;;4.14;91.90
61898;BME280;47850;50.274;18.908;2023-04-02T07:29:41;97488.67;;;4.14;91.79
61898;BME280;47850;50.274;18.908;2023-04-02T07:32:11;97497.88;;;4.15;91.82
61898;BME280;47850;50.274;18.908;2023-04-02T07:34:40;97496.70;;;4.19;91.76
61898;BME280;47850;50.274;18.908;2023-04-02T07:37:08;97504.43;;;4.22;91.70
61898;BME280;47850;50.274;18.908;2023-04-02T07:39:39;97507.73;;;4.24;91.55
61898;BME280;47850;50.274;18.908;2023-04-02T07:42:06;97514.20;;;4.29;91.45
61898;BME280;47850;50.274;18.908;2023-04-02T07:44:34;97522.61;;;4.33;90.73
61898;BME280;47850;50.274;18.908;2023-04-02T07:47:02;97527.55;;;4.30;89.94
61898;BME280;47850;50.274;18.908;2023-04-02T07:49:29;97531.43;;;4.27;89.75
61898;BME280;47850;50.274;18.908;2023-04-02T07:51:57;97538.50;;;4.17;89.48
61898;BME280;47850;50.274;18.908;2023-04-02T07:54:25;97547.13;;;4.11;89.38
61898;BME280;47850;50.274;18.908;2023-04-02T07:56:53;97553.66;;;4.06;89.49
61898;BME280;47850;50.274;18.908;2023-04-02T07:59:21;97559.16;;;3.98;89.45
61898;BME280;47850;50.274;18.908;2023-04-02T08:01:50;97562.08;;;3.86;89.14
61898;BME280;47850;50.274;18.908;2023-04-02T08:04:19;97567.19;;;3.75;88.88
61898;BME280;47850;50.274;18.908;2023-04-02T08:06:48;97576.96;;;3.66;88.85
61898;BME280;47850;50.274;18.908;2023-04-02T08:09:16;97579.29;;;3.61;88.65
61898;BME280;47850;50.274;18.908;2023-04-02T08:11:44;97581.29;;;3.63;88.74
61898;BME280;47850;50.274;18.908;2023-04-02T08:14:12;97584.66;;;3.71;88.17
61898;BME280;47850;50.274;18.908;2023-04-02T08:19:14;97593.98;;;4.05;88.14
61898;BME280;47850;50.274;18.908;2023-04-02T08:21:42;97600.93;;;4.22;87.72
61898;BME280;47850;50.274;18.908;2023-04-02T08:24:10;97606.70;;;4.34;86.30
61898;BME280;47850;50.274;18.908;2023-04-02T08:26:38;97609.05;;;4.36;85.34
61898;BME280;47850;50.274;18.908;2023-04-02T08:29:06;97609.10;;;4.37;85.25
61898;BME280;47850;50.274;18.908;2023-04-02T08:31:33;97614.72;;;4.36;85.11
61898;BME280;47850;50.274;18.908;2023-04-02T08:34:01;97620.04;;;4.30;84.64
61898;BME280;47850;50.274;18.908;2023-04-02T08:36:31;97622.79;;;4.19;84.84
61898;BME280;47850;50.274;18.908;2023-04-02T08:38:59;97628.23;;;4.15;85.56
61898;BME280;47850;50.274;18.908;2023-04-02T08:41:27;97630.65;;;4.15;85.11
61898;BME280;47850;50.274;18.908;2023-04-02T08:54:47;97659.27;;;4.02;84.41
61898;BME280;47850;50.274;18.908;2023-04-02T08:57:24;97659.19;;;3.99;84.79
61898;BME280;47850;50.274;18.908;2023-04-02T08:59:57;97658.36;;;3.96;84.78
61898;BME280;47850;50.274;18.908;2023-04-02T09:02:42;97664.23;;;3.93;84.51
61898;BME280;47850;50.274;18.908;2023-04-02T09:05:17;97664.92;;;3.93;85.29
61898;BME280;47850;50.274;18.908;2023-04-02T09:07:46;97667.60;;;3.92;85.49
61898;BME280;47850;50.274;18.908;2023-04-02T09:10:15;97669.84;;;3.88;85.72
61898;BME280;47850;50.274;18.908;2023-04-02T09:12:45;97674.09;;;3.85;86.06
61898;BME280;47850;50.274;18.908;2023-04-02T09:15:33;97676.76;;;3.83;86.23
61898;BME280;47850;50.274;18.908;2023-04-02T09:18:12;97678.81;;;3.77;86.05
61898;BME280;47850;50.274;18.908;2023-04-02T09:20:40;97684.02;;;3.70;86.64
61898;BME280;47850;50.274;18.908;2023-04-02T09:23:18;97686.88;;;3.64;86.81
61898;BME280;47850;50.274;18.908;2023-04-02T09:25:48;97692.70;;;3.59;87.17
61898;BME280;47850;50.274;18.908;2023-04-02T09:28:16;97700.89;;;3.55;87.40
61898;BME280;47850;50.274;18.908;2023-04-02T09:33:40;97705.78;;;3.40;87.77
61898;BME280;47850;50.274;18.908;2023-04-02T09:36:16;97709.79;;;3.37;87.99
61898;BME280;47850;50.274;18.908;2023-04-02T09:38:55;97709.91;;;3.35;88.62
61898;BME280;47850;50.274;18.908;2023-04-02T09:41:24;97713.23;;;3.32;88.97
61898;BME280;47850;50.274;18.908;2023-04-02T09:46:50;97723.95;;;3.24;89.51
61898;BME280;47850;50.274;18.908;2023-04-02T09:49:23;97724.13;;;3.24;90.00
61898;BME280;47850;50.274;18.908;2023-04-02T09:52:35;97731.71;;;3.25;90.33
61898;BME280;47850;50.274;18.908;2023-04-02T09:54:43;97738.66;;;3.25;90.31
61898;BME280;47850;50.274;18.908;2023-04-02T09:57:19;97735.00;;;3.26;90.40
61898;BME280;47850;50.274;18.908;2023-04-02T10:00:06;97741.04;;;3.32;90.61
61898;BME280;47850;50.274;18.908;2023-04-02T10:02:34;97740.84;;;3.35;90.49
61898;BME280;47850;50.274;18.908;2023-04-02T10:05:03;97746.15;;;3.33;90.37
61898;BME280;47850;50.274;18.908;2023-04-02T10:07:40;97751.08;;;3.30;90.38
61898;BME280;47850;50.274;18.908;2023-04-02T10:15:44;97763.13;;;3.31;90.45
61898;BME280;47850;50.274;18.908;2023-04-02T10:20:48;97767.55;;;3.26;90.54
61898;BME280;47850;50.274;18.908;2023-04-02T10:23:18;97769.45;;;3.25;90.69
61898;BME280;47850;50.274;18.908;2023-04-02T10:25:58;97774.52;;;3.31;90.54
61898;BME280;47850;50.274;18.908;2023-04-02T10:31:00;97783.10;;;3.38;90.50
61898;BME280;47850;50.274;18.908;2023-04-02T10:33:34;97784.19;;;3.35;90.66
61898;BME280;47850;50.274;18.908;2023-04-02T10:38:41;97790.23;;;3.28;90.65
61898;BME280;47850;50.274;18.908;2023-04-02T10:49:02;97800.73;;;3.28;91.04
61898;BME280;47850;50.274;18.908;2023-04-02T10:56:32;97814.60;;;3.34;90.37
61898;BME280;47850;50.274;18.908;2023-04-02T10:59:04;97818.38;;;3.34;90.26
61898;BME280;47850;50.274;18.908;2023-04-02T11:01:38;97821.87;;;3.36;90.24
61898;BME280;47850;50.274;18.908;2023-04-02T11:04:29;97822.50;;;3.37;90.16
61898;BME280;47850;50.274;18.908;2023-04-02T11:06:59;97827.23;;;3.38;90.19
61898;BME280;47850;50.274;18.908;2023-04-02T11:09:30;97830.77;;;3.36;90.07
61898;BME280;47850;50.274;18.908;2023-04-02T11:11:59;97830.86;;;3.34;89.91
61898;BME280;47850;50.274;18.908;2023-04-02T11:14:29;97837.73;;;3.32;89.86
61898;BME280;47850;50.274;18.908;2023-04-02T11:16:59;97843.88;;;3.33;89.52
61898;BME280;47850;50.274;18.908;2023-04-02T11:19:30;97841.61;;;3.43;89.38
61898;BME280;47850;50.274;18.908;2023-04-02T11:22:02;97846.60;;;3.67;89.09
61898;BME280;47850;50.274;18.908;2023-04-02T11:29:33;97857.56;;;3.73;87.29
61898;BME280;47850;50.274;18.908;2023-04-02T11:32:46;97857.44;;;3.67;87.50
61898;BME280;47850;50.274;18.908;2023-04-02T11:42:42;97870.80;;;3.55;87.50
61898;BME280;47850;50.274;18.908;2023-04-02T11:52:56;97874.64;;;3.60;87.62
61898;BME280;47850;50.274;18.908;2023-04-02T11:55:30;97876.30;;;3.61;87.47
61898;BME280;47850;50.274;18.908;2023-04-02T12:05:53;97887.48;;;3.59;87.65
61898;BME280;47850;50.274;18.908;2023-04-02T12:08:32;97891.31;;;3.66;87.26
61898;BME280;47850;50.274;18.908;2023-04-02T12:11:03;97892.84;;;3.71;86.66
61898;BME280;47850;50.274;18.908;2023-04-02T12:16:08;97892.92;;;3.74;85.99
61898;BME280;47850;50.274;18.908;2023-04-02T12:18:47;97897.10;;;3.71;85.89
61898;BME280;47850;50.274;18.908;2023-04-02T12:21:18;97898.27;;;3.68;86.28
61898;BME280;47850;50.274;18.908;2023-04-02T12:23:47;97903.45;;;3.67;86.64
61898;BME280;47850;50.274;18.908;2023-04-02T12:31:44;97910.70;;;3.70;86.69
61898;BME280;47850;50.274;18.908;2023-04-02T12:34:13;97911.64;;;3.68;86.54
61898;BME280;47850;50.274;18.908;2023-04-02T12:37:02;97917.80;;;3.72;87.04
61898;BME280;47850;50.274;18.908;2023-04-02T12:39:31;97921.08;;;3.74;86.93
61898;BME280;47850;50.274;18.908;2023-04-02T12:41:59;97919.77;;;3.76;86.51
61898;BME280;47850;50.274;18.908;2023-04-02T12:44:28;97921.02;;;3.69;86.24
61898;BME280;47850;50.274;18.908;2023-04-02T12:46:56;97932.47;;;3.66;86.50
61898;BME280;47850;50.274;18.908;2023-04-02T12:49:30;97932.43;;;3.62;86.68
61898;BME280;47850;50.274;18.908;2023-04-02T12:52:06;97938.89;;;3.55;86.56
61898;BME280;47850;50.274;18.908;2023-04-02T12:54:37;97938.86;;;3.52;86.63
61898;BME280;47850;50.274;18.908;2023-04-02T12:57:21;97939.13;;;3.52;86.73
61898;BME280;47850;50.274;18.908;2023-04-02T12:59:49;97939.95;;;3.50;86.60
61898;BME280;47850;50.274;18.908;2023-04-02T13:04:52;97944.25;;;3.43;86.37
61898;BME280;47850;50.274;18.908;2023-04-02T13:07:21;97952.80;;;3.39;86.49
61898;BME280;47850;50.274;18.908;2023-04-02T13:09:53;97955.99;;;3.35;86.43
61898;BME280;47850;50.274;18.908;2023-04-02T13:12:25;97955.63;;;3.29;86.59
61898;BME280;47850;50.274;18.908;2023-04-02T13:14:56;97958.67;;;3.26;86.68
61898;BME280;47850;50.274;18.908;2023-04-02T13:17:44;97964.33;;;3.26;86.63
61898;BME280;47850;50.274;18.908;2023-04-02T13:20:30;97964.30;;;3.21;86.89
61898;BME280;47850;50.274;18.908;2023-04-02T13:22:58;97967.10;;;3.20;87.04
61898;BME280;47850;50.274;18.908;2023-04-02T13:25:28;97968.04;;;3.27;86.98
61898;BME280;47850;50.274;18.908;2023-04-02T13:27:57;97969.55;;;3.40;86.81
61898;BME280;47850;50.274;18.908;2023-04-02T13:30:26;97969.31;;;3.53;86.81
61898;BME280;47850;50.274;18.908;2023-04-02T13:32:54;97976.42;;;3.65;86.32
61898;BME280;47850;50.274;18.908;2023-04-02T13:35:22;97981.57;;;3.71;85.46
61898;BME280;47850;50.274;18.908;2023-04-02T13:37:50;97984.16;;;3.71;84.61
61898;BME280;47850;50.274;18.908;2023-04-02T13:40:18;97985.58;;;3.69;84.62
61898;BME280;47850;50.274;18.908;2023-04-02T13:42:47;97984.89;;;3.65;84.56
61898;BME280;47850;50.274;18.908;2023-04-02T13:45:28;97993.10;;;3.65;84.41
61898;BME280;47850;50.274;18.908;2023-04-02T13:47:57;97992.95;;;3.65;84.36
61898;BME280;47850;50.274;18.908;2023-04-02T13:50:28;97992.98;;;3.64;84.90
61898;BME280;47850;50.274;18.908;2023-04-02T13:52:57;97996.35;;;3.60;85.02
61898;BME280;47850;50.274;18.908;2023-04-02T13:55:26;98002.83;;;3.60;85.29
61898;BME280;47850;50.274;18.908;2023-04-02T13:57:56;98003.02;;;3.74;84.53
61898;BME280;47850;50.274;18.908;2023-04-02T14:00:24;98003.99;;;3.85;83.85
61898;BME280;47850;50.274;18.908;2023-04-02T14:02:54;98003.29;;;3.75;83.43
61898;BME280;47850;50.274;18.908;2023-04-02T14:05:31;98004.32;;;3.62;83.41
61898;BME280;47850;50.274;18.908;2023-04-02T14:08:05;98006.10;;;3.54;83.47
61898;BME280;47850;50.274;18.908;2023-04-02T14:13:45;98019.56;;;3.44;83.72
61898;BME280;47850;50.274;18.908;2023-04-02T14:18:59;98030.12;;;3.35;83.85
61898;BME280;47850;50.274;18.908;2023-04-02T14:29:12;98044.42;;;3.05;84.40
61898;BME280;47850;50.274;18.908;2023-04-02T14:31:46;98047.56;;;3.02;84.32
61898;BME280;47850;50.274;18.908;2023-04-02T14:36:50;98051.38;;;3.06;84.50
61898;BME280;47850;50.274;18.908;2023-04-02T14:39:43;98055.46;;;3.12;84.67
61898;BME280;47850;50.274;18.908;2023-04-02T14:42:14;98060.15;;;3.12;84.40
61898;BME280;47850;50.274;18.908;2023-04-02T14:44:46;98060.15;;;3.08;84.02
61898;BME280;47850;50.274;18.908;2023-04-02T14:47:20;98065.29;;;3.05;83.87
61898;BME280;47850;50.274;18.908;2023-04-02T14:49:50;98064.43;;;2.98;83.95
61898;BME280;47850;50.274;18.908;2023-04-02T14:52:21;98066.16;;;2.94;83.98
61898;BME280;47850;50.274;18.908;2023-04-02T14:55:00;98071.01;;;2.93;84.30
61898;BME280;47850;50.274;18.908;2023-04-02T15:00:19;98071.16;;;2.97;84.32
61898;BME280;47850;50.274;18.908;2023-04-02T15:03:08;98070.48;;;2.97;84.27
61898;BME280;47850;50.274;18.908;2023-04-02T15:05:45;98076.34;;;2.99;84.35
61898;BME280;47850;50.274;18.908;2023-04-02T15:08:17;98079.34;;;3.00;84.24
61898;BME280;47850;50.274;18.908;2023-04-02T15:13:35;98081.98;;;3.06;83.64
61898;BME280;47850;50.274;18.908;2023-04-02T15:16:12;98082.89;;;3.07;82.83
61898;BME280;47850;50.274;18.908;2023-04-02T15:18:41;98080.20;;;3.09;83.16
61898;BME280;47850;50.274;18.908;2023-04-02T15:31:32;98104.98;;;3.13;82.30
61898;BME280;47850;50.274;18.908;2023-04-02T15:36:55;98109.89;;;3.11;82.42
61898;BME280;47850;50.274;18.908;2023-04-02T15:42:09;98116.68;;;3.09;82.00
61898;BME280;47850;50.274;18.908;2023-04-02T15:45:06;98120.17;;;3.06;81.76
61898;BME280;47850;50.274;18.908;2023-04-02T15:47:35;98121.27;;;3.04;82.16
61898;BME280;47850;50.274;18.908;2023-04-02T15:55:25;98136.89;;;2.92;81.94
61898;BME280;47850;50.274;18.908;2023-04-02T16:00:39;98143.16;;;2.85;82.13
61898;BME280;47850;50.274;18.908;2023-04-02T16:10:42;98152.14;;;2.73;81.71
61898;BME280;47850;50.274;18.908;2023-04-02T16:13:27;98155.47;;;2.71;81.93
61898;BME280;47850;50.274;18.908;2023-04-02T16:16:03;98156.34;;;2.71;82.12
61898;BME280;47850;50.274;18.908;2023-04-02T16:18:36;98157.84;;;2.72;82.31
61898;BME280;47850;50.274;18.908;2023-04-02T16:21:04;98163.13;;;2.70;82.31
61898;BME280;47850;50.274;18.908;2023-04-02T16:23:36;98163.98;;;2.69;82.42
61898;BME280;47850;50.274;18.908;2023-04-02T16:31:30;98176.69;;;2.66;82.40
61898;BME280;47850;50.274;18.908;2023-04-02T16:39:27;98183.77;;;2.57;82.71
61898;BME280;47850;50.274;18.908;2023-04-02T16:47:19;98193.33;;;2.42;83.93
61898;BME280;47850;50.274;18.908;2023-04-02T16:50:06;98195.85;;;2.37;84.21
61898;BME280;47850;50.274;18.908;2023-04-02T16:52:43;98198.79;;;2.31;84.72
61898;BME280;47850;50.274;18.908;2023-04-02T17:00:31;98204.03;;;2.21;85.17
61898;BME280;47850;50.274;18.908;2023-04-02T17:08:25;98208.54;;;2.17;86.23
61898;BME280;47850;50.274;18.908;2023-04-02T17:10:58;98209.11;;;2.16;86.83